To NAV CANADA Home Page Login to a new session Search on AWWS site Feedback and Comments Disclaimer Vers la page française équivalente Tips FAQ What's new on the site To the Forecasts and Observations / NOTAM section To "File a Flight Plan" website Publications and other links Update of the User's profile FIC Telephone Numbers My Weather Data Folder Route Weather Data Regional Weather Data Local Weather Data To the Forecasts and Observations / NOTAM section
Request Generated 08/22/2017 at 01:40:04 UTC . Weather information available at that time is displayed.

METAR/TAF

LOURDES-DE-BLANC-SABLON/QC    

METAR CYBX 220100Z VRB02KT 15SM SKC 14/13 A2972 RMK SLP068 DENSITY
ALT 300FT=
METAR CYBX 220000Z 26007KT 15SM FEW220 15/14 A2971 RMK CI1 CI TR
SLP064 DENSITY ALT 500FT=
METAR CYBX 212300Z 24006KT 15SM FEW040 FEW220 15/13 A2969 RMK SC1CI1
SC TR SLP057 DENSITY ALT 500FT=

TAF CYBX 211938Z 2120/2208 28012G22KT P6SM FEW030
BECMG 2121/2123 26007KT
FM220000 VRB03KT P6SM BKN040
FM220600 VRB03KT 5SM -SHRA BR BKN007
RMK NXT FCST BY 220200Z=
Your time UTC time
Weather data provided by Environment Canada and NAV CANADA